sensor_id;sensor_type;location;lat;lon;timestamp;P1;P2;P0
79038;PMS5003;68436;55.068;73.284;2023-05-09T00:06:16;225.75;183.50;111.25
79038;PMS5003;68436;55.068;73.284;2023-05-09T00:08:41;218.67;181.00;110.00
79038;PMS5003;68436;55.068;73.284;2023-05-09T00:11:08;215.75;181.00;111.00
79038;PMS5003;68436;55.068;73.284;2023-05-09T00:13:34;220.67;182.67;110.33
79038;PMS5003;68436;55.068;73.284;2023-05-09T00:16:00;219.75;183.25;109.50
79038;PMS5003;68436;55.068;73.284;2023-05-09T00:18:26;217.75;179.75;109.25
79038;PMS5003;68436;55.068;73.284;2023-05-09T00:20:53;214.50;179.50;109.75
79038;PMS5003;68436;55.068;73.284;2023-05-09T00:23:18;206.00;173.00;107.50
79038;PMS5003;68436;55.068;73.284;2023-05-09T00:26:04;224.00;181.75;107.75
79038;PMS5003;68436;55.068;73.284;2023-05-09T00:28:30;213.00;177.00;108.00
79038;PMS5003;68436;55.068;73.284;2023-05-09T00:33:59;227.67;189.00;114.00
79038;PMS5003;68436;55.068;73.284;2023-05-09T00:36:43;224.75;187.00;112.50
79038;PMS5003;68436;55.068;73.284;2023-05-09T00:39:27;217.67;182.00;111.67
79038;PMS5003;68436;55.068;73.284;2023-05-09T00:41:57;228.25;191.75;115.50
79038;PMS5003;68436;55.068;73.284;2023-05-09T00:47:26;224.75;188.25;111.50
79038;PMS5003;68436;55.068;73.284;2023-05-09T00:55:22;221.33;182.33;111.00
79038;PMS5003;68436;55.068;73.284;2023-05-09T00:57:49;217.00;181.00;111.75
79038;PMS5003;68436;55.068;73.284;2023-05-09T01:00:15;213.67;179.00;108.33
79038;PMS5003;68436;55.068;73.284;2023-05-09T01:02:43;218.50;185.00;112.50
79038;PMS5003;68436;55.068;73.284;2023-05-09T01:05:10;219.00;182.67;111.33
79038;PMS5003;68436;55.068;73.284;2023-05-09T01:07:51;232.75;193.00;118.00
79038;PMS5003;68436;55.068;73.284;2023-05-09T01:10:22;216.67;182.67;113.00
79038;PMS5003;68436;55.068;73.284;2023-05-09T01:13:23;222.25;184.50;109.25
79038;PMS5003;68436;55.068;73.284;2023-05-09T01:18:25;208.00;173.00;107.00
79038;PMS5003;68436;55.068;73.284;2023-05-09T01:23:27;223.25;188.50;113.50
79038;PMS5003;68436;55.068;73.284;2023-05-09T01:26:01;239.50;194.25;115.75
79038;PMS5003;68436;55.068;73.284;2023-05-09T01:31:31;243.00;196.50;122.00
79038;PMS5003;68436;55.068;73.284;2023-05-09T01:33:59;244.00;202.00;120.50
79038;PMS5003;68436;55.068;73.284;2023-05-09T01:36:29;245.50;203.75;124.75
79038;PMS5003;68436;55.068;73.284;2023-05-09T01:38:57;235.00;196.00;118.33
79038;PMS5003;68436;55.068;73.284;2023-05-09T01:46:53;237.75;198.75;122.00
79038;PMS5003;68436;55.068;73.284;2023-05-09T01:52:06;250.25;207.50;123.00
79038;PMS5003;68436;55.068;73.284;2023-05-09T01:54:32;238.00;196.67;118.00
79038;PMS5003;68436;55.068;73.284;2023-05-09T01:56:59;251.50;208.50;126.25
79038;PMS5003;68436;55.068;73.284;2023-05-09T01:59:27;248.33;205.67;123.67
79038;PMS5003;68436;55.068;73.284;2023-05-09T02:01:55;243.00;204.00;122.25
79038;PMS5003;68436;55.068;73.284;2023-05-09T02:04:22;247.00;206.00;122.33
79038;PMS5003;68436;55.068;73.284;2023-05-09T02:07:07;250.25;209.25;124.75
79038;PMS5003;68436;55.068;73.284;2023-05-09T02:09:33;242.25;201.50;122.75
79038;PMS5003;68436;55.068;73.284;2023-05-09T02:11:59;259.00;214.75;128.75
79038;PMS5003;68436;55.068;73.284;2023-05-09T02:14:26;265.50;216.50;127.50
79038;PMS5003;68436;55.068;73.284;2023-05-09T02:17:10;260.50;215.25;126.75
79038;PMS5003;68436;55.068;73.284;2023-05-09T02:19:41;249.75;208.50;126.25
79038;PMS5003;68436;55.068;73.284;2023-05-09T02:22:07;256.75;214.50;127.00
79038;PMS5003;68436;55.068;73.284;2023-05-09T02:24:34;276.67;225.67;132.00
79038;PMS5003;68436;55.068;73.284;2023-05-09T02:32:32;259.25;218.50;129.50
79038;PMS5003;68436;55.068;73.284;2023-05-09T02:34:59;261.33;219.67;131.00
79038;PMS5003;68436;55.068;73.284;2023-05-09T02:37:25;261.00;220.25;131.25
79038;PMS5003;68436;55.068;73.284;2023-05-09T02:39:51;261.67;218.00;127.00
79038;PMS5003;68436;55.068;73.284;2023-05-09T02:42:19;292.50;241.50;140.25
79038;PMS5003;68436;55.068;73.284;2023-05-09T02:47:50;266.75;224.00;132.50
79038;PMS5003;68436;55.068;73.284;2023-05-09T02:50:16;272.00;223.67;133.00
79038;PMS5003;68436;55.068;73.284;2023-05-09T02:52:43;268.00;224.50;131.50
79038;PMS5003;68436;55.068;73.284;2023-05-09T02:55:09;272.00;226.33;133.00
79038;PMS5003;68436;55.068;73.284;2023-05-09T02:57:37;284.50;230.75;137.50
79038;PMS5003;68436;55.068;73.284;2023-05-09T03:00:03;272.67;226.00;133.67
79038;PMS5003;68436;55.068;73.284;2023-05-09T03:02:34;274.50;223.50;132.00
79038;PMS5003;68436;55.068;73.284;2023-05-09T03:05:01;273.33;226.67;135.00
79038;PMS5003;68436;55.068;73.284;2023-05-09T03:07:28;266.75;224.75;137.00
79038;PMS5003;68436;55.068;73.284;2023-05-09T03:09:55;271.50;224.00;133.00
79038;PMS5003;68436;55.068;73.284;2023-05-09T03:12:21;271.00;225.50;133.00
79038;PMS5003;68436;55.068;73.284;2023-05-09T03:14:51;264.33;221.33;132.67
79038;PMS5003;68436;55.068;73.284;2023-05-09T03:17:17;255.50;215.25;128.75
79038;PMS5003;68436;55.068;73.284;2023-05-09T03:19:46;253.50;208.75;124.00
79038;PMS5003;68436;55.068;73.284;2023-05-09T03:25:02;256.67;210.00;125.67
79038;PMS5003;68436;55.068;73.284;2023-05-09T03:27:30;257.75;211.00;126.75
79038;PMS5003;68436;55.068;73.284;2023-05-09T03:32:42;242.25;203.50;122.50
79038;PMS5003;68436;55.068;73.284;2023-05-09T03:35:09;242.33;204.00;122.33
79038;PMS5003;68436;55.068;73.284;2023-05-09T03:37:53;254.25;210.75;126.00
79038;PMS5003;68436;55.068;73.284;2023-05-09T03:43:17;273.33;222.00;127.67
79038;PMS5003;68436;55.068;73.284;2023-05-09T03:48:47;271.00;224.00;127.33
79038;PMS5003;68436;55.068;73.284;2023-05-09T03:51:14;267.50;219.50;130.75
79038;PMS5003;68436;55.068;73.284;2023-05-09T03:53:44;262.00;219.67;129.00
79038;PMS5003;68436;55.068;73.284;2023-05-09T03:56:47;278.25;227.50;135.00
79038;PMS5003;68436;55.068;73.284;2023-05-09T03:59:13;260.00;215.00;129.00
79038;PMS5003;68436;55.068;73.284;2023-05-09T04:01:40;266.50;222.00;131.00
79038;PMS5003;68436;55.068;73.284;2023-05-09T04:04:07;260.67;215.67;127.33
79038;PMS5003;68436;55.068;73.284;2023-05-09T04:06:34;262.50;217.75;128.50
79038;PMS5003;68436;55.068;73.284;2023-05-09T04:09:03;271.00;221.50;131.25
79038;PMS5003;68436;55.068;73.284;2023-05-09T04:11:29;259.75;214.50;127.50
79038;PMS5003;68436;55.068;73.284;2023-05-09T04:14:08;251.67;209.00;124.00
79038;PMS5003;68436;55.068;73.284;2023-05-09T04:16:35;252.50;211.75;126.00
79038;PMS5003;68436;55.068;73.284;2023-05-09T04:21:45;257.50;215.50;128.00
79038;PMS5003;68436;55.068;73.284;2023-05-09T04:24:11;254.00;215.00;129.33
79038;PMS5003;68436;55.068;73.284;2023-05-09T04:26:56;277.25;229.00;133.50
79038;PMS5003;68436;55.068;73.284;2023-05-09T04:29:24;270.00;224.33;131.33
79038;PMS5003;68436;55.068;73.284;2023-05-09T04:31:53;275.50;230.00;133.00
79038;PMS5003;68436;55.068;73.284;2023-05-09T04:37:14;306.00;248.00;145.75
79038;PMS5003;68436;55.068;73.284;2023-05-09T04:39:40;298.67;249.67;144.00
79038;PMS5003;68436;55.068;73.284;2023-05-09T04:42:14;297.00;247.00;143.00
79038;PMS5003;68436;55.068;73.284;2023-05-09T04:47:27;302.75;248.75;143.25
79038;PMS5003;68436;55.068;73.284;2023-05-09T04:49:53;331.33;270.00;150.33
79038;PMS5003;68436;55.068;73.284;2023-05-09T04:52:19;292.00;242.50;142.00
79038;PMS5003;68436;55.068;73.284;2023-05-09T04:57:50;307.50;251.75;142.75
79038;PMS5003;68436;55.068;73.284;2023-05-09T05:00:16;318.50;256.50;147.75
79038;PMS5003;68436;55.068;73.284;2023-05-09T05:02:45;339.75;276.25;155.50
79038;PMS5003;68436;55.068;73.284;2023-05-09T05:05:48;297.50;245.50;141.25
79038;PMS5003;68436;55.068;73.284;2023-05-09T05:08:17;302.50;249.00;141.50
79038;PMS5003;68436;55.068;73.284;2023-05-09T05:10:52;298.50;245.75;144.50
79038;PMS5003;68436;55.068;73.284;2023-05-09T05:13:18;284.50;237.50;139.50
79038;PMS5003;68436;55.068;73.284;2023-05-09T05:15:51;286.00;237.00;139.00
79038;PMS5003;68436;55.068;73.284;2023-05-09T05:18:36;283.33;232.67;134.00
79038;PMS5003;68436;55.068;73.284;2023-05-09T05:24:07;274.25;224.75;133.00
79038;PMS5003;68436;55.068;73.284;2023-05-09T05:26:33;267.50;220.75;128.50
79038;PMS5003;68436;55.068;73.284;2023-05-09T05:29:00;258.67;217.00;128.00
79038;PMS5003;68436;55.068;73.284;2023-05-09T05:31:26;270.50;223.50;134.00
79038;PMS5003;68436;55.068;73.284;2023-05-09T05:34:13;258.33;216.67;127.00
79038;PMS5003;68436;55.068;73.284;2023-05-09T05:36:50;259.75;216.00;128.50
79038;PMS5003;68436;55.068;73.284;2023-05-09T05:39:16;257.33;211.33;127.00
79038;PMS5003;68436;55.068;73.284;2023-05-09T05:41:42;254.75;210.25;123.00
79038;PMS5003;68436;55.068;73.284;2023-05-09T05:46:54;232.00;195.75;118.75
79038;PMS5003;68436;55.068;73.284;2023-05-09T05:49:38;231.33;191.67;114.00
79038;PMS5003;68436;55.068;73.284;2023-05-09T05:52:05;231.00;189.00;115.25
79038;PMS5003;68436;55.068;73.284;2023-05-09T05:54:31;228.00;194.00;115.00
79038;PMS5003;68436;55.068;73.284;2023-05-09T05:56:57;221.75;187.00;110.00
79038;PMS5003;68436;55.068;73.284;2023-05-09T05:59:23;222.00;183.67;111.00
79038;PMS5003;68436;55.068;73.284;2023-05-09T06:01:50;214.75;178.00;105.50
79038;PMS5003;68436;55.068;73.284;2023-05-09T06:07:01;217.00;181.00;106.00
79038;PMS5003;68436;55.068;73.284;2023-05-09T06:09:27;211.00;173.00;104.00
79038;PMS5003;68436;55.068;73.284;2023-05-09T06:12:11;189.00;160.00;97.75
79038;PMS5003;68436;55.068;73.284;2023-05-09T06:14:42;188.67;160.00;97.00
79038;PMS5003;68436;55.068;73.284;2023-05-09T06:17:08;180.50;151.00;92.25
79038;PMS5003;68436;55.068;73.284;2023-05-09T06:19:34;183.00;153.00;92.00
79038;PMS5003;68436;55.068;73.284;2023-05-09T06:22:19;179.75;151.50;93.50
79038;PMS5003;68436;55.068;73.284;2023-05-09T06:25:04;178.67;149.67;90.67
79038;PMS5003;68436;55.068;73.284;2023-05-09T06:27:30;178.25;151.00;90.50
79038;PMS5003;68436;55.068;73.284;2023-05-09T06:29:56;170.00;144.25;89.00
79038;PMS5003;68436;55.068;73.284;2023-05-09T06:32:22;170.00;142.50;85.00
79038;PMS5003;68436;55.068;73.284;2023-05-09T06:34:50;163.00;138.50;83.00
79038;PMS5003;68436;55.068;73.284;2023-05-09T06:37:34;198.00;159.00;94.75
79038;PMS5003;68436;55.068;73.284;2023-05-09T06:40:19;169.00;141.00;86.00
79038;PMS5003;68436;55.068;73.284;2023-05-09T06:42:47;165.00;140.25;86.00
79038;PMS5003;68436;55.068;73.284;2023-05-09T06:45:32;150.00;130.00;79.00
79038;PMS5003;68436;55.068;73.284;2023-05-09T06:47:58;134.50;113.25;71.50
79038;PMS5003;68436;55.068;73.284;2023-05-09T06:50:24;150.33;129.00;77.00
79038;PMS5003;68436;55.068;73.284;2023-05-09T06:52:50;136.00;116.25;71.25
79038;PMS5003;68436;55.068;73.284;2023-05-09T06:55:16;125.00;108.00;67.67
79038;PMS5003;68436;55.068;73.284;2023-05-09T06:58:20;121.33;103.67;64.33
79038;PMS5003;68436;55.068;73.284;2023-05-09T07:01:04;138.00;117.75;70.50
79038;PMS5003;68436;55.068;73.284;2023-05-09T07:03:30;118.00;101.67;62.00
79038;PMS5003;68436;55.068;73.284;2023-05-09T07:05:56;150.50;127.00;76.50
79038;PMS5003;68436;55.068;73.284;2023-05-09T07:10:49;137.50;114.00;69.00
79038;PMS5003;68436;55.068;73.284;2023-05-09T07:13:17;119.00;102.00;61.50
79038;PMS5003;68436;55.068;73.284;2023-05-09T07:15:43;118.75;99.75;62.00
79038;PMS5003;68436;55.068;73.284;2023-05-09T07:18:17;105.67;92.33;58.33
79038;PMS5003;68436;55.068;73.284;2023-05-09T07:20:45;107.50;93.25;59.50
79038;PMS5003;68436;55.068;73.284;2023-05-09T07:23:17;107.00;95.00;60.00
79038;PMS5003;68436;55.068;73.284;2023-05-09T07:25:43;109.00;93.75;57.00
79038;PMS5003;68436;55.068;73.284;2023-05-09T07:28:17;106.00;92.00;58.33
79038;PMS5003;68436;55.068;73.284;2023-05-09T07:30:43;105.00;89.00;56.00
79038;PMS5003;68436;55.068;73.284;2023-05-09T07:33:17;105.50;90.00;56.00
79038;PMS5003;68436;55.068;73.284;2023-05-09T07:35:43;106.25;92.00;57.25
79038;PMS5003;68436;55.068;73.284;2023-05-09T07:38:17;93.67;80.00;51.00
79038;PMS5003;68436;55.068;73.284;2023-05-09T07:40:43;88.50;77.00;49.00
79038;PMS5003;68436;55.068;73.284;2023-05-09T07:43:17;91.00;78.00;50.00
79038;PMS5003;68436;55.068;73.284;2023-05-09T07:46:01;90.00;79.00;50.00
79038;PMS5003;68436;55.068;73.284;2023-05-09T07:48:27;78.67;67.00;42.00
79038;PMS5003;68436;55.068;73.284;2023-05-09T07:50:53;109.00;91.00;55.00
79038;PMS5003;68436;55.068;73.284;2023-05-09T07:53:19;74.33;61.67;38.67
79038;PMS5003;68436;55.068;73.284;2023-05-09T07:55:48;79.75;67.25;42.00
79038;PMS5003;68436;55.068;73.284;2023-05-09T07:58:17;76.00;63.50;40.50
79038;PMS5003;68436;55.068;73.284;2023-05-09T08:00:43;74.50;61.50;39.75
79038;PMS5003;68436;55.068;73.284;2023-05-09T08:03:17;69.00;54.67;35.00
79038;PMS5003;68436;55.068;73.284;2023-05-09T08:05:45;63.00;50.00;32.75
79038;PMS5003;68436;55.068;73.284;2023-05-09T08:08:17;65.00;51.00;33.00
79038;PMS5003;68436;55.068;73.284;2023-05-09T08:10:44;62.75;50.75;33.00
79038;PMS5003;68436;55.068;73.284;2023-05-09T08:16:01;64.25;52.00;35.00
79038;PMS5003;68436;55.068;73.284;2023-05-09T08:18:28;65.00;51.00;32.00
79038;PMS5003;68436;55.068;73.284;2023-05-09T08:21:12;66.25;51.75;33.00
79038;PMS5003;68436;55.068;73.284;2023-05-09T08:23:57;67.00;53.00;34.00
79038;PMS5003;68436;55.068;73.284;2023-05-09T08:26:23;77.00;62.50;38.50
79038;PMS5003;68436;55.068;73.284;2023-05-09T08:28:49;60.00;48.00;31.00
79038;PMS5003;68436;55.068;73.284;2023-05-09T08:31:15;92.75;76.00;46.00
79038;PMS5003;68436;55.068;73.284;2023-05-09T08:34:00;56.00;44.00;29.00
79038;PMS5003;68436;55.068;73.284;2023-05-09T08:36:26;102.75;76.75;42.00
79038;PMS5003;68436;55.068;73.284;2023-05-09T08:38:52;76.00;59.67;34.00
79038;PMS5003;68436;55.068;73.284;2023-05-09T08:44:03;45.00;37.00;24.00
79038;PMS5003;68436;55.068;73.284;2023-05-09T08:46:36;50.25;40.50;26.00
79038;PMS5003;68436;55.068;73.284;2023-05-09T08:49:06;38.33;32.00;21.00
79038;PMS5003;68436;55.068;73.284;2023-05-09T08:51:33;44.00;36.25;24.00
79038;PMS5003;68436;55.068;73.284;2023-05-09T08:53:59;41.00;35.00;23.00
79038;PMS5003;68436;55.068;73.284;2023-05-09T08:56:44;37.00;32.00;22.00
79038;PMS5003;68436;55.068;73.284;2023-05-09T08:59:28;47.00;38.00;24.00
79038;PMS5003;68436;55.068;73.284;2023-05-09T09:02:13;42.00;34.50;22.00
79038;PMS5003;68436;55.068;73.284;2023-05-09T09:04:39;39.33;33.00;21.33
79038;PMS5003;68436;55.068;73.284;2023-05-09T09:07:05;46.75;37.00;23.50
79038;PMS5003;68436;55.068;73.284;2023-05-09T09:09:33;65.00;48.00;29.00
79038;PMS5003;68436;55.068;73.284;2023-05-09T09:12:01;37.00;31.00;20.00
79038;PMS5003;68436;55.068;73.284;2023-05-09T09:14:28;35.33;30.67;20.00
79038;PMS5003;68436;55.068;73.284;2023-05-09T09:16:56;42.50;34.50;22.00
79038;PMS5003;68436;55.068;73.284;2023-05-09T09:19:42;38.33;31.00;20.00
79038;PMS5003;68436;55.068;73.284;2023-05-09T09:22:09;39.25;31.50;20.50
79038;PMS5003;68436;55.068;73.284;2023-05-09T09:24:38;34.00;29.00;19.00
79038;PMS5003;68436;55.068;73.284;2023-05-09T09:27:23;35.00;30.00;20.00
79038;PMS5003;68436;55.068;73.284;2023-05-09T09:29:48;51.00;40.67;25.67
79038;PMS5003;68436;55.068;73.284;2023-05-09T09:32:33;44.75;35.50;22.00
79038;PMS5003;68436;55.068;73.284;2023-05-09T09:35:18;34.67;29.00;18.33
79038;PMS5003;68436;55.068;73.284;2023-05-09T09:37:45;33.00;26.50;17.25
79038;PMS5003;68436;55.068;73.284;2023-05-09T09:40:29;27.00;25.00;17.00
79038;PMS5003;68436;55.068;73.284;2023-05-09T09:42:55;31.00;27.00;17.00
79038;PMS5003;68436;55.068;73.284;2023-05-09T09:46:02;53.25;42.00;25.50
79038;PMS5003;68436;55.068;73.284;2023-05-09T09:48:32;46.00;37.33;23.00
79038;PMS5003;68436;55.068;73.284;2023-05-09T09:51:17;30.00;27.00;18.00
79038;PMS5003;68436;55.068;73.284;2023-05-09T09:53:43;60.00;45.33;28.00
79038;PMS5003;68436;55.068;73.284;2023-05-09T09:56:09;34.50;28.25;18.00
79038;PMS5003;68436;55.068;73.284;2023-05-09T09:59:11;32.33;28.00;19.00
79038;PMS5003;68436;55.068;73.284;2023-05-09T10:02:00;29.75;25.25;17.00
79038;PMS5003;68436;55.068;73.284;2023-05-09T10:04:28;29.00;26.00;19.00
79038;PMS5003;68436;55.068;73.284;2023-05-09T10:06:56;28.75;25.00;17.00
79038;PMS5003;68436;55.068;73.284;2023-05-09T10:09:25;28.00;25.00;17.00
79038;PMS5003;68436;55.068;73.284;2023-05-09T10:11:52;27.00;24.00;17.00
79038;PMS5003;68436;55.068;73.284;2023-05-09T10:14:37;48.00;39.33;25.33
79038;PMS5003;68436;55.068;73.284;2023-05-09T10:17:06;33.00;28.00;18.00
79038;PMS5003;68436;55.068;73.284;2023-05-09T10:19:52;80.00;66.00;39.00
79038;PMS5003;68436;55.068;73.284;2023-05-09T10:22:19;31.00;27.00;18.00
79038;PMS5003;68436;55.068;73.284;2023-05-09T10:25:05;32.00;27.67;18.00
79038;PMS5003;68436;55.068;73.284;2023-05-09T10:27:34;32.00;27.25;19.00
79038;PMS5003;68436;55.068;73.284;2023-05-09T10:30:21;32.67;28.00;19.33
79038;PMS5003;68436;55.068;73.284;2023-05-09T10:35:32;53.67;41.67;25.00
79038;PMS5003;68436;55.068;73.284;2023-05-09T10:38:01;35.00;29.00;19.00
79038;PMS5003;68436;55.068;73.284;2023-05-09T10:40:45;35.00;29.00;19.00
79038;PMS5003;68436;55.068;73.284;2023-05-09T10:43:17;32.00;27.00;18.00
79038;PMS5003;68436;55.068;73.284;2023-05-09T10:45:43;31.00;27.00;19.00
79038;PMS5003;68436;55.068;73.284;2023-05-09T10:48:17;31.00;26.00;18.00
79038;PMS5003;68436;55.068;73.284;2023-05-09T10:50:43;30.00;27.00;18.00
79038;PMS5003;68436;55.068;73.284;2023-05-09T10:53:47;37.33;30.67;19.67
79038;PMS5003;68436;55.068;73.284;2023-05-09T10:56:31;53.50;41.75;24.00
79038;PMS5003;68436;55.068;73.284;2023-05-09T10:59:00;34.00;28.00;18.00
79038;PMS5003;68436;55.068;73.284;2023-05-09T11:01:32;30.25;26.00;18.00
79038;PMS5003;68436;55.068;73.284;2023-05-09T11:04:17;31.67;27.00;18.00
79038;PMS5003;68436;55.068;73.284;2023-05-09T11:06:47;62.75;48.50;28.75
79038;PMS5003;68436;55.068;73.284;2023-05-09T11:09:48;28.00;25.00;17.00
79038;PMS5003;68436;55.068;73.284;2023-05-09T11:12:10;24.00;21.00;14.00
79038;PMS5003;68436;55.068;73.284;2023-05-09T11:14:41;19.25;17.25;12.50
79038;PMS5003;68436;55.068;73.284;2023-05-09T11:17:08;21.00;19.00;13.00
79038;PMS5003;68436;55.068;73.284;2023-05-09T11:25:07;19.00;17.00;11.00
79038;PMS5003;68436;55.068;73.284;2023-05-09T11:27:42;16.00;14.25;9.00
79038;PMS5003;68436;55.068;73.284;2023-05-09T11:32:53;24.50;19.75;12.00
79038;PMS5003;68436;55.068;73.284;2023-05-09T11:35:43;15.00;14.00;9.00
79038;PMS5003;68436;55.068;73.284;2023-05-09T11:38:19;13.67;12.00;8.00
79038;PMS5003;68436;55.068;73.284;2023-05-09T11:43:32;11.00;8.33;7.00
79038;PMS5003;68436;55.068;73.284;2023-05-09T11:45:58;14.75;13.50;9.00
79038;PMS5003;68436;55.068;73.284;2023-05-09T11:48:24;12.00;10.50;7.00
79038;PMS5003;68436;55.068;73.284;2023-05-09T11:51:18;23.25;18.50;10.00
79038;PMS5003;68436;55.068;73.284;2023-05-09T11:53:45;11.00;10.00;7.00
79038;PMS5003;68436;55.068;73.284;2023-05-09T11:56:37;12.00;11.00;7.00
79038;PMS5003;68436;55.068;73.284;2023-05-09T11:59:06;12.00;10.00;6.00
79038;PMS5003;68436;55.068;73.284;2023-05-09T12:01:52;11.00;10.00;6.00
79038;PMS5003;68436;55.068;73.284;2023-05-09T12:04:19;8.75;8.00;5.50
79038;PMS5003;68436;55.068;73.284;2023-05-09T12:12:14;12.25;10.00;6.00
79038;PMS5003;68436;55.068;73.284;2023-05-09T12:14:42;6.33;6.00;5.00
79038;PMS5003;68436;55.068;73.284;2023-05-09T12:17:08;10.50;8.50;5.00
79038;PMS5003;68436;55.068;73.284;2023-05-09T12:22:18;45.50;33.25;19.00
79038;PMS5003;68436;55.068;73.284;2023-05-09T12:24:48;11.00;9.00;6.00
79038;PMS5003;68436;55.068;73.284;2023-05-09T12:27:35;31.25;24.75;14.50
79038;PMS5003;68436;55.068;73.284;2023-05-09T12:30:02;41.00;32.00;18.00
79038;PMS5003;68436;55.068;73.284;2023-05-09T12:32:33;10.00;9.00;5.00
79038;PMS5003;68436;55.068;73.284;2023-05-09T12:35:01;22.00;18.25;12.00
79038;PMS5003;68436;55.068;73.284;2023-05-09T12:43:37;24.00;19.00;10.00
79038;PMS5003;68436;55.068;73.284;2023-05-09T12:46:04;10.00;9.00;5.00
79038;PMS5003;68436;55.068;73.284;2023-05-09T12:48:48;11.00;9.00;6.00
79038;PMS5003;68436;55.068;73.284;2023-05-09T12:51:18;10.00;8.00;5.50
79038;PMS5003;68436;55.068;73.284;2023-05-09T12:53:46;53.33;38.67;21.00
79038;PMS5003;68436;55.068;73.284;2023-05-09T12:56:14;11.00;9.25;6.50
79038;PMS5003;68436;55.068;73.284;2023-05-09T12:58:46;18.00;13.33;8.33
79038;PMS5003;68436;55.068;73.284;2023-05-09T13:01:12;14.00;11.00;7.00
79038;PMS5003;68436;55.068;73.284;2023-05-09T13:06:51;14.75;12.00;7.50
79038;PMS5003;68436;55.068;73.284;2023-05-09T13:09:18;12.00;10.67;6.00
79038;PMS5003;68436;55.068;73.284;2023-05-09T13:11:44;38.00;26.00;14.00
79038;PMS5003;68436;55.068;73.284;2023-05-09T13:14:12;68.00;47.00;27.00
79038;PMS5003;68436;55.068;73.284;2023-05-09T13:19:23;26.33;19.67;11.33
79038;PMS5003;68436;55.068;73.284;2023-05-09T13:21:49;42.25;32.25;18.25
79038;PMS5003;68436;55.068;73.284;2023-05-09T13:24:15;20.00;17.00;11.00
79038;PMS5003;68436;55.068;73.284;2023-05-09T13:26:41;20.00;17.25;12.00
79038;PMS5003;68436;55.068;73.284;2023-05-09T13:32:10;18.00;16.00;10.00
79038;PMS5003;68436;55.068;73.284;2023-05-09T13:34:36;16.67;14.67;10.00
79038;PMS5003;68436;55.068;73.284;2023-05-09T13:37:02;17.00;15.00;10.00
79038;PMS5003;68436;55.068;73.284;2023-05-09T13:39:47;17.00;16.00;11.00
79038;PMS5003;68436;55.068;73.284;2023-05-09T13:42:13;20.00;17.75;11.25
79038;PMS5003;68436;55.068;73.284;2023-05-09T13:45:16;19.00;16.00;10.00
79038;PMS5003;68436;55.068;73.284;2023-05-09T13:47:42;15.25;14.00;10.00
79038;PMS5003;68436;55.068;73.284;2023-05-09T13:50:08;17.00;15.67;10.00
79038;PMS5003;68436;55.068;73.284;2023-05-09T13:52:34;20.75;18.00;12.00
79038;PMS5003;68436;55.068;73.284;2023-05-09T13:55:18;19.00;16.00;11.33
79038;PMS5003;68436;55.068;73.284;2023-05-09T13:57:47;17.00;15.00;11.00
79038;PMS5003;68436;55.068;73.284;2023-05-09T14:00:32;22.00;19.00;13.00
79038;PMS5003;68436;55.068;73.284;2023-05-09T14:08:26;27.00;23.00;16.00
79038;PMS5003;68436;55.068;73.284;2023-05-09T14:13:56;32.00;26.00;17.50
79038;PMS5003;68436;55.068;73.284;2023-05-09T14:16:22;32.00;27.00;18.00
79038;PMS5003;68436;55.068;73.284;2023-05-09T14:18:48;32.00;26.00;18.00
79038;PMS5003;68436;55.068;73.284;2023-05-09T14:21:13;39.00;31.00;20.25
79038;PMS5003;68436;55.068;73.284;2023-05-09T14:23:40;35.75;29.00;19.00
79038;PMS5003;68436;55.068;73.284;2023-05-09T14:26:06;35.00;30.00;20.00
79038;PMS5003;68436;55.068;73.284;2023-05-09T14:28:32;31.00;28.00;20.00
79038;PMS5003;68436;55.068;73.284;2023-05-09T14:31:00;38.25;32.00;21.00
79038;PMS5003;68436;55.068;73.284;2023-05-09T14:33:26;39.00;32.00;21.25
79038;PMS5003;68436;55.068;73.284;2023-05-09T14:35:53;38.00;31.25;22.00
79038;PMS5003;68436;55.068;73.284;2023-05-09T14:38:19;36.00;31.00;21.67
79038;PMS5003;68436;55.068;73.284;2023-05-09T14:40:45;46.00;38.00;25.00
79038;PMS5003;68436;55.068;73.284;2023-05-09T14:43:30;41.25;35.00;25.00
79038;PMS5003;68436;55.068;73.284;2023-05-09T14:45:56;45.50;37.00;24.00
79038;PMS5003;68436;55.068;73.284;2023-05-09T14:48:22;43.00;36.00;24.00
79038;PMS5003;68436;55.068;73.284;2023-05-09T14:50:49;43.00;36.00;25.00
79038;PMS5003;68436;55.068;73.284;2023-05-09T14:56:06;45.50;37.50;25.75
79038;PMS5003;68436;55.068;73.284;2023-05-09T14:58:32;50.00;40.00;26.33
79038;PMS5003;68436;55.068;73.284;2023-05-09T15:01:19;50.25;41.00;27.00
79038;PMS5003;68436;55.068;73.284;2023-05-09T15:03:45;53.00;43.00;29.00
79038;PMS5003;68436;55.068;73.284;2023-05-09T15:06:12;53.00;43.00;29.00
79038;PMS5003;68436;55.068;73.284;2023-05-09T15:08:38;52.00;43.00;29.00
79038;PMS5003;68436;55.068;73.284;2023-05-09T15:16:52;55.25;45.00;30.00
79038;PMS5003;68436;55.068;73.284;2023-05-09T15:19:19;54.00;43.00;29.00
79038;PMS5003;68436;55.068;73.284;2023-05-09T15:21:46;54.00;43.25;29.00
79038;PMS5003;68436;55.068;73.284;2023-05-09T15:24:31;54.25;43.50;29.00
79038;PMS5003;68436;55.068;73.284;2023-05-09T15:29:49;53.67;43.33;28.67
79038;PMS5003;68436;55.068;73.284;2023-05-09T15:32:15;54.00;43.00;29.00
79038;PMS5003;68436;55.068;73.284;2023-05-09T15:37:25;57.00;45.00;30.50
79038;PMS5003;68436;55.068;73.284;2023-05-09T15:39:51;56.00;44.00;29.00
79038;PMS5003;68436;55.068;73.284;2023-05-09T15:42:17;55.00;44.00;29.00
79038;PMS5003;68436;55.068;73.284;2023-05-09T15:44:44;52.67;42.00;28.00
79038;PMS5003;68436;55.068;73.284;2023-05-09T15:47:12;48.00;39.25;26.00
79038;PMS5003;68436;55.068;73.284;2023-05-09T15:49:38;49.00;41.00;28.00
79038;PMS5003;68436;55.068;73.284;2023-05-09T15:58:00;50.00;41.00;27.00
79038;PMS5003;68436;55.068;73.284;2023-05-09T16:00:45;53.00;42.50;28.00
79038;PMS5003;68436;55.068;73.284;2023-05-09T16:03:17;53.50;42.00;28.00
79038;PMS5003;68436;55.068;73.284;2023-05-09T16:06:02;56.00;45.00;30.00
79038;PMS5003;68436;55.068;73.284;2023-05-09T16:08:47;57.75;46.00;30.75
79038;PMS5003;68436;55.068;73.284;2023-05-09T16:11:13;66.25;52.00;34.00